createdAt,value
2019-02-23T00:00:08.013Z,97821.48
2019-02-23T00:05:05.179Z,97830.89
2019-02-23T00:10:02.285Z,97823.15
2019-02-23T00:14:59.204Z,97826.16
2019-02-23T00:19:56.231Z,97834.42
2019-02-23T00:24:54.187Z,97840.80
2019-02-23T00:29:51.167Z,97851.52
2019-02-23T00:34:48.156Z,97844.55
2019-02-23T00:39:45.088Z,97859.47
2019-02-23T00:44:42.131Z,97859.78
2019-02-23T00:49:39.911Z,97865.12
2019-02-23T00:54:36.901Z,97854.67
2019-02-23T00:59:33.851Z,97870.09
2019-02-23T01:04:30.814Z,97877.80
2019-02-23T01:09:27.791Z,97877.60
2019-02-23T01:14:24.757Z,97888.86
2019-02-23T01:19:21.787Z,97899.34
2019-02-23T01:24:18.754Z,97904.57
2019-02-23T01:29:15.693Z,97906.83
2019-02-23T01:34:12.645Z,97919.86
2019-02-23T01:39:09.766Z,97919.61
2019-02-23T01:44:06.721Z,97911.00
2019-02-23T01:49:04.855Z,97916.47
2019-02-23T01:54:01.959Z,97914.52
2019-02-23T01:58:58.881Z,97923.95
2019-02-23T02:03:55.869Z,97923.30
2019-02-23T02:08:52.776Z,97927.22
2019-02-23T02:13:49.762Z,97928.58
2019-02-23T02:18:46.719Z,97939.51
2019-02-23T02:23:43.706Z,97944.61
2019-02-23T02:28:40.713Z,97936.89
2019-02-23T02:34:04.299Z,97935.77
2019-02-23T02:39:01.322Z,97942.33
2019-02-23T02:43:58.340Z,97941.68
2019-02-23T02:48:55.387Z,97956.48
2019-02-23T02:53:52.351Z,97960.36
2019-02-23T02:58:50.254Z,97966.68
2019-02-23T03:03:47.206Z,97973.66
2019-02-23T03:08:44.364Z,97969.86
2019-02-23T03:13:41.350Z,97971.00
2019-02-23T03:18:38.379Z,97969.70
2019-02-23T03:23:35.380Z,97975.37
2019-02-23T03:28:32.304Z,97979.91
2019-02-23T03:33:29.283Z,97978.89
2019-02-23T03:38:26.232Z,97984.98
2019-02-23T03:43:23.180Z,97989.96
2019-02-23T03:48:20.156Z,97993.27
2019-02-23T03:53:17.184Z,97994.81
2019-02-23T03:58:14.198Z,98004.14
2019-02-23T04:03:11.239Z,98005.47
2019-02-23T04:08:08.172Z,98012.15
2019-02-23T04:13:05.226Z,98007.75
2019-02-23T04:18:02.249Z,98010.28
2019-02-23T04:22:59.288Z,98009.52
2019-02-23T04:27:56.242Z,98011.82
2019-02-23T04:32:53.378Z,98005.89
2019-02-23T04:37:50.301Z,98015.36
2019-02-23T04:42:47.298Z,98010.84
2019-02-23T04:47:44.404Z,98026.04
2019-02-23T04:52:41.496Z,98022.59
2019-02-23T04:57:38.526Z,98025.11
2019-02-23T05:02:35.529Z,98026.09
2019-02-23T05:07:32.938Z,98036.52
2019-02-23T05:12:29.923Z,98037.31
2019-02-23T05:17:26.977Z,98042.53
2019-02-23T05:22:23.974Z,98037.09
2019-02-23T05:27:20.989Z,98038.48
2019-02-23T05:32:18.069Z,98036.85
2019-02-23T05:37:15.148Z,98049.10
2019-02-23T05:42:14.027Z,98051.88
2019-02-23T05:47:10.989Z,98067.95
2019-02-23T05:52:08.255Z,98069.50
2019-02-23T05:57:05.250Z,98083.73
2019-02-23T06:02:02.345Z,98079.59
2019-02-23T06:07:00.970Z,98083.84
2019-02-23T06:11:58.083Z,98075.66
2019-02-23T06:16:55.009Z,98074.32
2019-02-23T06:21:54.100Z,98074.73
2019-02-23T06:26:50.866Z,98088.13
2019-02-23T06:31:48.065Z,98087.90
2019-02-23T06:36:45.179Z,98087.83
2019-02-23T06:41:42.289Z,98086.11
2019-02-23T06:46:39.427Z,98081.13
2019-02-23T06:51:36.562Z,98077.70
2019-02-23T06:56:33.593Z,98095.95
2019-02-23T07:01:31.751Z,98094.50
2019-02-23T07:06:28.742Z,98098.38
2019-02-23T07:11:25.757Z,98110.06
2019-02-23T07:16:22.946Z,98107.45
2019-02-23T07:21:19.933Z,98105.66
2019-02-23T07:26:17.076Z,98100.06
2019-02-23T07:31:14.181Z,98113.69
2019-02-23T07:36:11.250Z,98107.61
2019-02-23T07:41:10.135Z,98116.91
2019-02-23T07:46:07.148Z,98143.11
2019-02-23T07:51:04.218Z,98124.08
2019-02-23T07:56:01.168Z,98117.38
2019-02-23T08:00:58.169Z,98140.54
2019-02-23T08:05:55.227Z,98132.09
2019-02-23T08:10:54.232Z,98122.89
2019-02-23T08:15:51.289Z,98130.98
2019-02-23T08:20:49.337Z,98126.77
2019-02-23T08:25:46.347Z,98137.23
2019-02-23T08:30:43.446Z,98139.90
2019-02-23T08:35:46.066Z,98159.92
2019-02-23T08:40:43.236Z,98156.84
2019-02-23T08:45:40.309Z,98167.91
2019-02-23T08:50:39.266Z,98182.97
2019-02-23T08:55:39.195Z,98186.41
2019-02-23T09:00:38.033Z,98204.39
2019-02-23T09:05:35.010Z,98189.41
2019-02-23T09:10:32.270Z,98196.72
2019-02-23T09:15:33.136Z,98196.38
2019-02-23T09:20:30.156Z,98193.80
2019-02-23T09:25:27.224Z,98197.03
2019-02-23T09:30:24.187Z,98196.22
2019-02-23T09:35:21.171Z,98188.09
2019-02-23T09:40:21.188Z,98195.02
2019-02-23T09:45:19.708Z,98177.19
2019-02-23T09:50:19.711Z,98186.39
2019-02-23T09:55:17.898Z,98192.03
2019-02-23T10:00:16.850Z,98195.31
2019-02-23T10:05:14.173Z,98205.89
2019-02-23T10:10:13.267Z,98201.34
2019-02-23T10:15:10.696Z,98207.82
2019-02-23T10:20:12.112Z,98216.52
2019-02-23T10:25:09.227Z,98221.40
2019-02-23T10:30:15.348Z,98217.28
2019-02-23T10:35:12.979Z,98216.52
2019-02-23T10:40:11.450Z,98219.73
2019-02-23T10:45:13.329Z,98208.08
2019-02-23T10:50:14.335Z,98216.80
2019-02-23T10:55:13.241Z,98206.56
2019-02-23T11:00:21.838Z,98217.60
2019-02-23T11:05:20.487Z,98207.96
2019-02-23T11:10:19.686Z,98198.52
2019-02-23T11:15:20.886Z,98196.28
2019-02-23T11:20:18.598Z,98204.69
2019-02-23T11:25:15.714Z,98198.28
2019-02-23T11:30:16.135Z,98199.56
2019-02-23T11:35:17.275Z,98201.69
2019-02-23T11:40:17.793Z,98201.28
2019-02-23T11:45:15.885Z,98188.46
2019-02-23T11:50:13.615Z,98190.96
2019-02-23T11:55:12.072Z,98178.22
2019-02-23T12:00:13.862Z,98165.56
2019-02-23T12:05:11.020Z,98177.57
2019-02-23T12:10:11.435Z,98183.78
2019-02-23T12:15:08.519Z,98164.70
2019-02-23T12:20:09.773Z,98162.35
2019-02-23T12:25:07.526Z,98160.25
2019-02-23T12:30:07.825Z,98147.98
2019-02-23T12:35:09.043Z,98137.02
2019-02-23T12:40:07.997Z,98124.08
2019-02-23T12:45:09.017Z,98135.13
2019-02-23T12:50:09.903Z,98124.10
2019-02-23T12:55:09.337Z,98124.40
2019-02-23T13:00:16.591Z,98117.07
2019-02-23T13:05:13.716Z,98112.08
2019-02-23T13:10:12.788Z,98105.85
2019-02-23T13:15:20.658Z,98105.89
2019-02-23T13:20:35.220Z,98099.27
2019-02-23T13:26:05.127Z,98087.33
2019-02-23T13:31:33.712Z,98097.66
2019-02-23T13:37:05.648Z,98095.06
2019-02-23T13:42:22.586Z,98099.95
2019-02-23T13:47:32.042Z,98088.45
2019-02-23T13:53:05.803Z,98093.70
2019-02-23T13:58:22.566Z,98089.61
2019-02-23T14:04:02.591Z,98095.06
2019-02-23T14:09:39.724Z,98106.23
2019-02-23T14:14:47.892Z,98106.57
2019-02-23T14:20:37.976Z,98108.27
2019-02-23T14:26:07.572Z,98114.19
2019-02-23T14:31:39.940Z,98119.44
2019-02-23T14:41:49.451Z,98111.68
2019-02-23T14:47:15.916Z,98115.30
2019-02-23T14:52:50.168Z,98105.30
2019-02-23T14:58:22.714Z,98111.16
2019-02-23T15:03:28.683Z,98111.23
2019-02-23T15:08:53.144Z,98110.45
2019-02-23T15:14:24.704Z,98113.84
2019-02-23T15:19:42.043Z,98107.92
2019-02-23T15:25:30.754Z,98117.91
2019-02-23T15:30:33.300Z,98110.42
2019-02-23T15:35:59.724Z,98108.28
2019-02-23T15:41:32.571Z,98116.09
2019-02-23T15:46:41.035Z,98123.69
2019-02-23T15:51:40.349Z,98131.52
2019-02-23T15:56:37.528Z,98132.34
2019-02-23T16:01:34.570Z,98138.19
2019-02-23T16:06:31.849Z,98150.41
2019-02-23T16:11:28.817Z,98148.08
2019-02-23T16:16:25.782Z,98148.42
2019-02-23T16:21:23.076Z,98161.48
2019-02-23T16:26:20.140Z,98152.09
2019-02-23T16:31:17.285Z,98159.11
2019-02-23T16:36:15.753Z,98163.50
2019-02-23T16:41:12.791Z,98159.08
2019-02-23T16:46:09.799Z,98161.96
2019-02-23T16:51:06.939Z,98154.86
2019-02-23T16:56:04.443Z,98144.09
2019-02-23T17:01:04.148Z,98147.38
2019-02-23T17:06:00.390Z,98143.17
2019-02-23T17:10:57.344Z,98137.77
2019-02-23T17:15:54.521Z,98128.50
2019-02-23T17:20:51.468Z,98129.01
2019-02-23T17:25:48.453Z,98132.33
2019-02-23T17:30:45.704Z,98120.63
2019-02-23T17:35:42.647Z,98141.89
2019-02-23T17:40:39.654Z,98133.16
2019-02-23T17:45:36.595Z,98147.66
2019-02-23T17:50:33.588Z,98127.97
2019-02-23T17:55:30.745Z,98137.50
2019-02-23T18:00:28.797Z,98137.91
2019-02-23T18:05:28.427Z,98140.89
2019-02-23T18:10:25.555Z,98147.61
2019-02-23T18:15:22.629Z,98152.23
2019-02-23T18:20:19.780Z,98155.96
2019-02-23T18:25:17.273Z,98156.77
2019-02-23T18:30:15.552Z,98149.13
2019-02-23T18:35:15.155Z,98152.03
2019-02-23T18:40:12.334Z,98133.53
2019-02-23T18:45:09.332Z,98118.02
2019-02-23T18:50:07.290Z,98128.56
2019-02-23T18:55:06.634Z,98136.52
2019-02-23T19:00:08.892Z,98124.19
2019-02-23T19:05:09.982Z,98123.34
2019-02-23T19:10:10.772Z,98129.14
2019-02-23T19:15:11.044Z,98130.16
2019-02-23T19:20:13.548Z,98126.66
2019-02-23T19:25:10.752Z,98131.73
2019-02-23T19:30:13.781Z,98123.52
2019-02-23T19:35:11.103Z,98113.04
2019-02-23T19:40:08.817Z,98122.75
2019-02-23T19:45:10.552Z,98122.03
2019-02-23T19:50:12.465Z,98118.22
2019-02-23T19:55:14.299Z,98129.94
2019-02-23T20:06:33.131Z,98120.24
2019-02-23T20:11:30.255Z,98119.64
2019-02-23T20:16:27.304Z,98121.23
2019-02-23T20:21:26.331Z,98126.53
2019-02-23T20:26:23.310Z,98104.99
2019-02-23T20:31:20.494Z,98112.82
2019-02-23T20:36:17.663Z,98096.83
2019-02-23T20:41:14.811Z,98113.64
2019-02-23T20:46:11.853Z,98114.22
2019-02-23T20:51:08.932Z,98120.06
2019-02-23T20:56:05.879Z,98118.98
2019-02-23T21:01:04.812Z,98135.05
2019-02-23T21:06:01.797Z,98119.11
2019-02-23T21:10:59.047Z,98130.12
2019-02-23T21:15:57.042Z,98133.42
2019-02-23T21:20:54.028Z,98126.64
2019-02-23T21:25:51.031Z,98115.91
2019-02-23T21:30:48.210Z,98123.43
2019-02-23T21:35:45.210Z,98129.44
2019-02-23T21:40:42.190Z,98137.51
2019-02-23T21:45:39.238Z,98133.05
2019-02-23T21:50:36.641Z,98121.72
2019-02-23T21:55:33.711Z,98126.14
2019-02-23T22:00:31.039Z,98124.88
2019-02-23T22:05:30.354Z,98119.59
2019-02-23T22:10:27.384Z,98099.96
2019-02-23T22:15:24.589Z,98094.44
2019-02-23T22:20:21.642Z,98092.90
2019-02-23T22:25:20.401Z,98087.03
2019-02-23T22:30:18.484Z,98088.97
2019-02-23T22:35:15.441Z,98114.53
2019-02-23T22:40:12.536Z,98118.56
2019-02-23T22:45:09.477Z,98120.37
2019-02-23T22:50:07.692Z,98095.87
2019-02-23T22:55:05.236Z,98075.20
2019-02-23T23:00:02.625Z,98064.25
2019-02-23T23:04:59.577Z,98058.16
2019-02-23T23:09:56.742Z,98053.78
2019-02-23T23:14:53.931Z,98067.13
2019-02-23T23:19:51.000Z,98058.52
2019-02-23T23:24:47.951Z,98064.70
2019-02-23T23:29:45.015Z,98066.63
2019-02-23T23:34:41.993Z,98075.70
2019-02-23T23:39:39.036Z,98067.03
2019-02-23T23:44:36.048Z,98072.33
2019-02-23T23:49:33.111Z,98060.36
2019-02-23T23:54:30.079Z,98070.30
2019-02-23T23:59:27.052Z,98073.01
